sensor_id;sensor_type;location;lat;lon;timestamp;P1;durP1;ratioP1;P2;durP2;ratioP2
47367;SDS011;34646;47.964;7.982;2023-07-16T00:05:58;2.92;;;1.35;;
47367;SDS011;34646;47.964;7.982;2023-07-16T00:11:59;1.65;;;1.20;;
47367;SDS011;34646;47.964;7.982;2023-07-16T00:17:59;2.27;;;1.27;;
47367;SDS011;34646;47.964;7.982;2023-07-16T00:24:00;1.77;;;1.30;;
47367;SDS011;34646;47.964;7.982;2023-07-16T00:30:01;2.20;;;1.17;;
47367;SDS011;34646;47.964;7.982;2023-07-16T00:36:01;2.10;;;1.23;;
47367;SDS011;34646;47.964;7.982;2023-07-16T00:42:03;1.67;;;1.10;;
47367;SDS011;34646;47.964;7.982;2023-07-16T00:48:04;2.75;;;1.30;;
47367;SDS011;34646;47.964;7.982;2023-07-16T00:54:08;1.63;;;1.10;;
47367;SDS011;34646;47.964;7.982;2023-07-16T01:00:09;2.08;;;1.10;;
47367;SDS011;34646;47.964;7.982;2023-07-16T01:12:53;1.67;;;0.95;;
47367;SDS011;34646;47.964;7.982;2023-07-16T01:18:55;2.78;;;1.08;;
47367;SDS011;34646;47.964;7.982;2023-07-16T01:31:16;2.50;;;0.90;;
47367;SDS011;34646;47.964;7.982;2023-07-16T01:37:17;1.83;;;1.00;;
47367;SDS011;34646;47.964;7.982;2023-07-16T01:43:18;1.63;;;1.05;;
47367;SDS011;34646;47.964;7.982;2023-07-16T01:49:19;1.83;;;0.90;;
47367;SDS011;34646;47.964;7.982;2023-07-16T01:55:21;1.65;;;0.90;;
47367;SDS011;34646;47.964;7.982;2023-07-16T02:01:21;3.33;;;0.95;;
47367;SDS011;34646;47.964;7.982;2023-07-16T02:07:22;1.73;;;0.98;;
47367;SDS011;34646;47.964;7.982;2023-07-16T02:13:24;2.17;;;0.80;;
47367;SDS011;34646;47.964;7.982;2023-07-16T02:19:25;1.38;;;0.90;;
47367;SDS011;34646;47.964;7.982;2023-07-16T02:25:26;1.88;;;0.65;;
47367;SDS011;34646;47.964;7.982;2023-07-16T02:31:27;1.33;;;0.90;;
47367;SDS011;34646;47.964;7.982;2023-07-16T02:37:27;1.83;;;0.93;;
47367;SDS011;34646;47.964;7.982;2023-07-16T02:43:30;2.58;;;1.30;;
47367;SDS011;34646;47.964;7.982;2023-07-16T02:49:31;2.70;;;1.07;;
47367;SDS011;34646;47.964;7.982;2023-07-16T02:55:32;2.30;;;0.90;;
47367;SDS011;34646;47.964;7.982;2023-07-16T03:07:33;2.73;;;0.90;;
47367;SDS011;34646;47.964;7.982;2023-07-16T03:13:34;2.40;;;0.85;;
47367;SDS011;34646;47.964;7.982;2023-07-16T03:19:35;1.90;;;1.00;;
47367;SDS011;34646;47.964;7.982;2023-07-16T03:25:36;3.17;;;0.98;;
47367;SDS011;34646;47.964;7.982;2023-07-16T03:31:37;1.88;;;0.85;;
47367;SDS011;34646;47.964;7.982;2023-07-16T03:37:40;2.67;;;1.23;;
47367;SDS011;34646;47.964;7.982;2023-07-16T03:43:41;3.63;;;0.90;;
47367;SDS011;34646;47.964;7.982;2023-07-16T03:49:51;1.85;;;0.75;;
47367;SDS011;34646;47.964;7.982;2023-07-16T03:55:51;1.63;;;0.90;;
47367;SDS011;34646;47.964;7.982;2023-07-16T04:01:52;3.75;;;1.10;;
47367;SDS011;34646;47.964;7.982;2023-07-16T04:07:54;2.58;;;0.90;;
47367;SDS011;34646;47.964;7.982;2023-07-16T04:13:55;2.43;;;0.90;;
47367;SDS011;34646;47.964;7.982;2023-07-16T04:19:56;1.85;;;0.93;;
47367;SDS011;34646;47.964;7.982;2023-07-16T04:25:57;2.53;;;1.00;;
47367;SDS011;34646;47.964;7.982;2023-07-16T04:31:58;1.60;;;0.90;;
47367;SDS011;34646;47.964;7.982;2023-07-16T04:37:58;3.70;;;1.38;;
47367;SDS011;34646;47.964;7.982;2023-07-16T04:43:59;1.88;;;0.90;;
47367;SDS011;34646;47.964;7.982;2023-07-16T04:50:00;3.33;;;0.85;;
47367;SDS011;34646;47.964;7.982;2023-07-16T04:56:00;2.08;;;1.05;;
47367;SDS011;34646;47.964;7.982;2023-07-16T05:02:02;1.60;;;0.90;;
47367;SDS011;34646;47.964;7.982;2023-07-16T05:08:04;2.45;;;0.80;;
47367;SDS011;34646;47.964;7.982;2023-07-16T05:14:05;2.43;;;1.00;;
47367;SDS011;34646;47.964;7.982;2023-07-16T05:20:06;2.95;;;0.85;;
47367;SDS011;34646;47.964;7.982;2023-07-16T05:26:07;4.57;;;1.48;;
47367;SDS011;34646;47.964;7.982;2023-07-16T05:32:08;3.22;;;1.00;;
47367;SDS011;34646;47.964;7.982;2023-07-16T05:38:09;3.07;;;1.23;;
47367;SDS011;34646;47.964;7.982;2023-07-16T05:44:10;4.40;;;1.10;;
47367;SDS011;34646;47.964;7.982;2023-07-16T05:50:10;3.67;;;1.23;;
47367;SDS011;34646;47.964;7.982;2023-07-16T06:02:12;2.70;;;1.20;;
47367;SDS011;34646;47.964;7.982;2023-07-16T06:08:12;6.23;;;1.37;;
47367;SDS011;34646;47.964;7.982;2023-07-16T06:14:13;3.70;;;1.60;;
47367;SDS011;34646;47.964;7.982;2023-07-16T06:20:14;7.00;;;1.53;;
47367;SDS011;34646;47.964;7.982;2023-07-16T06:26:14;4.20;;;1.07;;
47367;SDS011;34646;47.964;7.982;2023-07-16T06:32:15;6.30;;;1.63;;
47367;SDS011;34646;47.964;7.982;2023-07-16T06:38:16;5.13;;;1.17;;
47367;SDS011;34646;47.964;7.982;2023-07-16T06:44:16;2.85;;;1.30;;
47367;SDS011;34646;47.964;7.982;2023-07-16T06:50:18;4.45;;;1.27;;
47367;SDS011;34646;47.964;7.982;2023-07-16T06:56:18;3.07;;;1.20;;
47367;SDS011;34646;47.964;7.982;2023-07-16T07:02:19;3.20;;;1.20;;
47367;SDS011;34646;47.964;7.982;2023-07-16T07:14:21;4.33;;;1.83;;
47367;SDS011;34646;47.964;7.982;2023-07-16T07:20:21;3.50;;;1.13;;
47367;SDS011;34646;47.964;7.982;2023-07-16T07:26:22;4.10;;;1.05;;
47367;SDS011;34646;47.964;7.982;2023-07-16T07:32:23;2.67;;;1.37;;
47367;SDS011;34646;47.964;7.982;2023-07-16T07:38:24;3.10;;;1.10;;
47367;SDS011;34646;47.964;7.982;2023-07-16T07:44:24;3.23;;;1.10;;
47367;SDS011;34646;47.964;7.982;2023-07-16T07:50:25;5.73;;;1.23;;
47367;SDS011;34646;47.964;7.982;2023-07-16T07:56:26;1.83;;;0.80;;
47367;SDS011;34646;47.964;7.982;2023-07-16T08:02:26;3.37;;;1.33;;
47367;SDS011;34646;47.964;7.982;2023-07-16T08:08:27;3.53;;;1.42;;
47367;SDS011;34646;47.964;7.982;2023-07-16T08:14:28;3.33;;;1.20;;
47367;SDS011;34646;47.964;7.982;2023-07-16T08:20:29;2.30;;;1.02;;
47367;SDS011;34646;47.964;7.982;2023-07-16T08:26:29;2.33;;;0.93;;
47367;SDS011;34646;47.964;7.982;2023-07-16T08:32:30;1.73;;;0.98;;
47367;SDS011;34646;47.964;7.982;2023-07-16T08:38:31;2.03;;;1.00;;
47367;SDS011;34646;47.964;7.982;2023-07-16T08:44:31;1.80;;;1.00;;
47367;SDS011;34646;47.964;7.982;2023-07-16T08:50:36;2.65;;;0.95;;
47367;SDS011;34646;47.964;7.982;2023-07-16T08:56:37;2.95;;;1.27;;
47367;SDS011;34646;47.964;7.982;2023-07-16T09:02:38;4.40;;;1.10;;
47367;SDS011;34646;47.964;7.982;2023-07-16T09:08:39;1.95;;;0.75;;
47367;SDS011;34646;47.964;7.982;2023-07-16T09:14:43;2.07;;;1.07;;
47367;SDS011;34646;47.964;7.982;2023-07-16T09:20:44;2.63;;;0.90;;
47367;SDS011;34646;47.964;7.982;2023-07-16T09:26:54;1.98;;;0.95;;
47367;SDS011;34646;47.964;7.982;2023-07-16T09:32:58;1.92;;;1.15;;
47367;SDS011;34646;47.964;7.982;2023-07-16T09:39:11;1.85;;;1.00;;
47367;SDS011;34646;47.964;7.982;2023-07-16T09:45:18;2.05;;;0.93;;
47367;SDS011;34646;47.964;7.982;2023-07-16T09:51:19;2.35;;;1.02;;
47367;SDS011;34646;47.964;7.982;2023-07-16T09:57:21;2.42;;;0.90;;
47367;SDS011;34646;47.964;7.982;2023-07-16T10:03:25;9.50;;;1.15;;
47367;SDS011;34646;47.964;7.982;2023-07-16T10:09:35;1.47;;;0.70;;
47367;SDS011;34646;47.964;7.982;2023-07-16T10:15:39;2.00;;;1.00;;
47367;SDS011;34646;47.964;7.982;2023-07-16T10:21:51;2.42;;;0.80;;
47367;SDS011;34646;47.964;7.982;2023-07-16T10:27:53;3.03;;;1.02;;
47367;SDS011;34646;47.964;7.982;2023-07-16T10:33:58;2.03;;;1.00;;
47367;SDS011;34646;47.964;7.982;2023-07-16T10:40:01;2.28;;;1.00;;
47367;SDS011;34646;47.964;7.982;2023-07-16T10:46:06;1.98;;;0.90;;
47367;SDS011;34646;47.964;7.982;2023-07-16T10:52:06;1.55;;;0.85;;
47367;SDS011;34646;47.964;7.982;2023-07-16T10:58:07;1.13;;;0.70;;
47367;SDS011;34646;47.964;7.982;2023-07-16T11:04:08;1.50;;;0.80;;
47367;SDS011;34646;47.964;7.982;2023-07-16T11:10:09;2.20;;;1.10;;
47367;SDS011;34646;47.964;7.982;2023-07-16T11:16:09;2.83;;;0.97;;
47367;SDS011;34646;47.964;7.982;2023-07-16T11:22:10;2.05;;;0.90;;
47367;SDS011;34646;47.964;7.982;2023-07-16T11:28:11;2.00;;;0.83;;
47367;SDS011;34646;47.964;7.982;2023-07-16T11:34:14;2.70;;;0.90;;
47367;SDS011;34646;47.964;7.982;2023-07-16T11:40:16;2.80;;;1.00;;
47367;SDS011;34646;47.964;7.982;2023-07-16T11:46:18;1.58;;;0.77;;
47367;SDS011;34646;47.964;7.982;2023-07-16T11:52:26;2.20;;;1.03;;
47367;SDS011;34646;47.964;7.982;2023-07-16T11:58:28;1.30;;;0.70;;
47367;SDS011;34646;47.964;7.982;2023-07-16T12:04:28;3.13;;;1.00;;
47367;SDS011;34646;47.964;7.982;2023-07-16T12:10:29;1.27;;;0.60;;
47367;SDS011;34646;47.964;7.982;2023-07-16T12:16:30;1.77;;;0.82;;
47367;SDS011;34646;47.964;7.982;2023-07-16T12:22:31;1.92;;;1.00;;
47367;SDS011;34646;47.964;7.982;2023-07-16T12:28:32;3.25;;;0.90;;
47367;SDS011;34646;47.964;7.982;2023-07-16T12:34:32;1.60;;;1.00;;
47367;SDS011;34646;47.964;7.982;2023-07-16T12:40:33;2.57;;;1.10;;
47367;SDS011;34646;47.964;7.982;2023-07-16T12:46:39;1.83;;;0.93;;
47367;SDS011;34646;47.964;7.982;2023-07-16T12:52:40;1.90;;;0.87;;
47367;SDS011;34646;47.964;7.982;2023-07-16T12:58:40;2.13;;;0.80;;
47367;SDS011;34646;47.964;7.982;2023-07-16T13:04:41;1.50;;;0.80;;
47367;SDS011;34646;47.964;7.982;2023-07-16T13:10:41;1.40;;;0.80;;
47367;SDS011;34646;47.964;7.982;2023-07-16T13:16:42;1.20;;;0.70;;
47367;SDS011;34646;47.964;7.982;2023-07-16T13:22:43;1.67;;;1.02;;
47367;SDS011;34646;47.964;7.982;2023-07-16T13:28:44;2.13;;;0.67;;
47367;SDS011;34646;47.964;7.982;2023-07-16T13:34:45;2.03;;;0.70;;
47367;SDS011;34646;47.964;7.982;2023-07-16T13:40:46;1.67;;;0.70;;
47367;SDS011;34646;47.964;7.982;2023-07-16T13:46:46;2.00;;;0.80;;
47367;SDS011;34646;47.964;7.982;2023-07-16T13:58:48;2.77;;;1.13;;
47367;SDS011;34646;47.964;7.982;2023-07-16T14:04:50;4.97;;;1.77;;
47367;SDS011;34646;47.964;7.982;2023-07-16T14:10:50;4.40;;;1.53;;
47367;SDS011;34646;47.964;7.982;2023-07-16T14:16:51;4.20;;;1.20;;
47367;SDS011;34646;47.964;7.982;2023-07-16T14:22:53;6.50;;;1.70;;
47367;SDS011;34646;47.964;7.982;2023-07-16T14:28:53;7.50;;;1.97;;
47367;SDS011;34646;47.964;7.982;2023-07-16T14:34:54;4.43;;;1.30;;
47367;SDS011;34646;47.964;7.982;2023-07-16T14:40:55;5.10;;;1.60;;
47367;SDS011;34646;47.964;7.982;2023-07-16T14:46:55;5.40;;;1.40;;
47367;SDS011;34646;47.964;7.982;2023-07-16T14:52:56;5.03;;;1.43;;
47367;SDS011;34646;47.964;7.982;2023-07-16T14:58:56;5.63;;;1.60;;
47367;SDS011;34646;47.964;7.982;2023-07-16T15:04:57;4.57;;;1.33;;
47367;SDS011;34646;47.964;7.982;2023-07-16T15:10:58;4.23;;;1.80;;
47367;SDS011;34646;47.964;7.982;2023-07-16T15:16:59;6.93;;;2.15;;
47367;SDS011;34646;47.964;7.982;2023-07-16T15:23:00;3.92;;;1.45;;
47367;SDS011;34646;47.964;7.982;2023-07-16T15:29:00;6.43;;;1.40;;
47367;SDS011;34646;47.964;7.982;2023-07-16T15:35:01;6.25;;;1.60;;
47367;SDS011;34646;47.964;7.982;2023-07-16T15:41:04;7.85;;;1.60;;
47367;SDS011;34646;47.964;7.982;2023-07-16T15:53:05;4.47;;;1.70;;
47367;SDS011;34646;47.964;7.982;2023-07-16T15:59:06;6.00;;;1.60;;
47367;SDS011;34646;47.964;7.982;2023-07-16T16:05:07;3.53;;;1.10;;
47367;SDS011;34646;47.964;7.982;2023-07-16T16:11:07;3.38;;;1.45;;
47367;SDS011;34646;47.964;7.982;2023-07-16T16:17:08;2.58;;;1.42;;
47367;SDS011;34646;47.964;7.982;2023-07-16T16:23:09;5.43;;;1.80;;
47367;SDS011;34646;47.964;7.982;2023-07-16T16:29:10;4.88;;;1.38;;
47367;SDS011;34646;47.964;7.982;2023-07-16T16:35:10;4.60;;;1.73;;
47367;SDS011;34646;47.964;7.982;2023-07-16T16:41:12;3.50;;;1.45;;
47367;SDS011;34646;47.964;7.982;2023-07-16T16:53:13;4.33;;;1.80;;
47367;SDS011;34646;47.964;7.982;2023-07-16T16:59:14;3.00;;;1.40;;
47367;SDS011;34646;47.964;7.982;2023-07-16T17:05:15;6.17;;;1.77;;
47367;SDS011;34646;47.964;7.982;2023-07-16T17:11:16;5.13;;;1.60;;
47367;SDS011;34646;47.964;7.982;2023-07-16T17:17:16;5.30;;;1.50;;
47367;SDS011;34646;47.964;7.982;2023-07-16T17:23:18;3.67;;;1.73;;
47367;SDS011;34646;47.964;7.982;2023-07-16T17:29:19;3.10;;;1.50;;
47367;SDS011;34646;47.964;7.982;2023-07-16T17:35:19;2.45;;;1.33;;
47367;SDS011;34646;47.964;7.982;2023-07-16T17:41:21;4.50;;;1.40;;
47367;SDS011;34646;47.964;7.982;2023-07-16T17:47:22;4.55;;;1.70;;
47367;SDS011;34646;47.964;7.982;2023-07-16T17:53:22;5.35;;;1.58;;
47367;SDS011;34646;47.964;7.982;2023-07-16T17:59:24;3.65;;;1.50;;
47367;SDS011;34646;47.964;7.982;2023-07-16T18:11:26;3.87;;;1.67;;
47367;SDS011;34646;47.964;7.982;2023-07-16T18:17:26;5.63;;;1.57;;
47367;SDS011;34646;47.964;7.982;2023-07-16T18:23:27;5.40;;;2.00;;
47367;SDS011;34646;47.964;7.982;2023-07-16T18:29:28;3.83;;;1.60;;
47367;SDS011;34646;47.964;7.982;2023-07-16T18:35:29;3.00;;;1.40;;
47367;SDS011;34646;47.964;7.982;2023-07-16T18:41:32;2.85;;;1.38;;
47367;SDS011;34646;47.964;7.982;2023-07-16T18:47:34;3.05;;;1.70;;
47367;SDS011;34646;47.964;7.982;2023-07-16T18:53:34;8.00;;;1.33;;
47367;SDS011;34646;47.964;7.982;2023-07-16T19:05:36;2.93;;;1.70;;
47367;SDS011;34646;47.964;7.982;2023-07-16T19:11:37;4.53;;;1.60;;
47367;SDS011;34646;47.964;7.982;2023-07-16T19:17:37;4.73;;;1.47;;
47367;SDS011;34646;47.964;7.982;2023-07-16T19:23:38;6.03;;;1.70;;
47367;SDS011;34646;47.964;7.982;2023-07-16T19:29:39;4.00;;;1.80;;
47367;SDS011;34646;47.964;7.982;2023-07-16T19:35:40;3.87;;;1.50;;
47367;SDS011;34646;47.964;7.982;2023-07-16T19:41:40;8.43;;;1.13;;
47367;SDS011;34646;47.964;7.982;2023-07-16T19:47:41;8.93;;;1.60;;
47367;SDS011;34646;47.964;7.982;2023-07-16T19:53:41;2.60;;;1.40;;
47367;SDS011;34646;47.964;7.982;2023-07-16T19:59:42;3.27;;;1.50;;
47367;SDS011;34646;47.964;7.982;2023-07-16T20:05:44;4.82;;;1.42;;
47367;SDS011;34646;47.964;7.982;2023-07-16T20:11:44;6.35;;;1.48;;
47367;SDS011;34646;47.964;7.982;2023-07-16T20:17:45;5.40;;;1.40;;
47367;SDS011;34646;47.964;7.982;2023-07-16T20:23:46;2.33;;;1.43;;
47367;SDS011;34646;47.964;7.982;2023-07-16T20:29:47;4.57;;;1.38;;
47367;SDS011;34646;47.964;7.982;2023-07-16T20:35:48;2.83;;;1.50;;
47367;SDS011;34646;47.964;7.982;2023-07-16T20:41:48;2.00;;;1.20;;
47367;SDS011;34646;47.964;7.982;2023-07-16T20:47:50;4.47;;;1.43;;
47367;SDS011;34646;47.964;7.982;2023-07-16T20:53:51;2.67;;;1.38;;
47367;SDS011;34646;47.964;7.982;2023-07-16T20:59:52;3.07;;;1.37;;
47367;SDS011;34646;47.964;7.982;2023-07-16T21:05:53;4.25;;;1.33;;
47367;SDS011;34646;47.964;7.982;2023-07-16T21:11:53;3.73;;;1.37;;
47367;SDS011;34646;47.964;7.982;2023-07-16T21:17:54;3.27;;;1.93;;
47367;SDS011;34646;47.964;7.982;2023-07-16T21:23:54;2.47;;;1.43;;
47367;SDS011;34646;47.964;7.982;2023-07-16T21:29:55;6.80;;;1.40;;
47367;SDS011;34646;47.964;7.982;2023-07-16T21:35:56;3.30;;;1.45;;
47367;SDS011;34646;47.964;7.982;2023-07-16T21:41:57;5.68;;;1.48;;
47367;SDS011;34646;47.964;7.982;2023-07-16T21:47:57;2.47;;;1.30;;
47367;SDS011;34646;47.964;7.982;2023-07-16T21:53:58;3.43;;;1.37;;
47367;SDS011;34646;47.964;7.982;2023-07-16T22:00:00;3.00;;;1.48;;
47367;SDS011;34646;47.964;7.982;2023-07-16T22:06:00;3.08;;;1.25;;
47367;SDS011;34646;47.964;7.982;2023-07-16T22:12:01;2.80;;;1.47;;
47367;SDS011;34646;47.964;7.982;2023-07-16T22:18:02;2.50;;;1.37;;
47367;SDS011;34646;47.964;7.982;2023-07-16T22:24:03;6.47;;;1.50;;
47367;SDS011;34646;47.964;7.982;2023-07-16T22:30:04;2.83;;;1.13;;
47367;SDS011;34646;47.964;7.982;2023-07-16T22:42:06;2.17;;;1.30;;
47367;SDS011;34646;47.964;7.982;2023-07-16T22:54:08;4.03;;;1.57;;
47367;SDS011;34646;47.964;7.982;2023-07-16T23:00:09;3.20;;;1.40;;
47367;SDS011;34646;47.964;7.982;2023-07-16T23:06:11;3.53;;;1.38;;
47367;SDS011;34646;47.964;7.982;2023-07-16T23:12:11;2.67;;;1.50;;
47367;SDS011;34646;47.964;7.982;2023-07-16T23:18:12;3.00;;;1.53;;
47367;SDS011;34646;47.964;7.982;2023-07-16T23:24:13;4.07;;;1.63;;
47367;SDS011;34646;47.964;7.982;2023-07-16T23:30:13;4.67;;;1.70;;
47367;SDS011;34646;47.964;7.982;2023-07-16T23:36:14;2.17;;;1.52;;
47367;SDS011;34646;47.964;7.982;2023-07-16T23:42:15;2.93;;;1.37;;
47367;SDS011;34646;47.964;7.982;2023-07-16T23:48:15;3.03;;;1.60;;
47367;SDS011;34646;47.964;7.982;2023-07-16T23:54:16;2.67;;;1.57;;
